sensor_id;sensor_type;location;lat;lon;timestamp;P1;durP1;ratioP1;P2;durP2;ratioP2
635;SDS011;302;50.206;8.196;2023-06-22T00:01:17;6.90;;;6.40;;
635;SDS011;302;50.206;8.196;2023-06-22T00:03:42;7.20;;;6.70;;
635;SDS011;302;50.206;8.196;2023-06-22T00:06:07;7.40;;;6.80;;
635;SDS011;302;50.206;8.196;2023-06-22T00:08:32;6.60;;;6.10;;
635;SDS011;302;50.206;8.196;2023-06-22T00:10:58;7.67;;;6.90;;
635;SDS011;302;50.206;8.196;2023-06-22T00:13:23;7.33;;;6.77;;
635;SDS011;302;50.206;8.196;2023-06-22T00:15:48;7.00;;;6.50;;
635;SDS011;302;50.206;8.196;2023-06-22T00:18:13;6.57;;;6.07;;
635;SDS011;302;50.206;8.196;2023-06-22T00:20:38;7.80;;;7.10;;
635;SDS011;302;50.206;8.196;2023-06-22T00:23:04;7.77;;;7.07;;
635;SDS011;302;50.206;8.196;2023-06-22T00:25:33;7.10;;;6.50;;
635;SDS011;302;50.206;8.196;2023-06-22T00:27:58;7.50;;;7.00;;
635;SDS011;302;50.206;8.196;2023-06-22T00:30:23;8.07;;;7.37;;
635;SDS011;302;50.206;8.196;2023-06-22T00:32:49;7.70;;;7.10;;
635;SDS011;302;50.206;8.196;2023-06-22T00:35:14;8.70;;;8.03;;
635;SDS011;302;50.206;8.196;2023-06-22T00:37:39;8.03;;;7.33;;
635;SDS011;302;50.206;8.196;2023-06-22T00:40:10;8.10;;;7.50;;
635;SDS011;302;50.206;8.196;2023-06-22T00:42:37;9.15;;;8.45;;
635;SDS011;302;50.206;8.196;2023-06-22T00:45:02;8.57;;;7.83;;
635;SDS011;302;50.206;8.196;2023-06-22T00:47:28;9.40;;;8.57;;
635;SDS011;302;50.206;8.196;2023-06-22T00:49:53;9.00;;;8.20;;
635;SDS011;302;50.206;8.196;2023-06-22T00:52:21;9.07;;;8.27;;
635;SDS011;302;50.206;8.196;2023-06-22T00:54:52;9.00;;;8.32;;
635;SDS011;302;50.206;8.196;2023-06-22T00:57:17;8.73;;;8.03;;
635;SDS011;302;50.206;8.196;2023-06-22T00:59:43;8.85;;;8.05;;
635;SDS011;302;50.206;8.196;2023-06-22T01:02:09;8.83;;;8.13;;
635;SDS011;302;50.206;8.196;2023-06-22T01:04:34;8.85;;;8.15;;
635;SDS011;302;50.206;8.196;2023-06-22T01:07:07;9.03;;;8.33;;
635;SDS011;302;50.206;8.196;2023-06-22T01:09:39;9.20;;;8.43;;
635;SDS011;302;50.206;8.196;2023-06-22T01:12:06;8.95;;;8.18;;
635;SDS011;302;50.206;8.196;2023-06-22T01:14:35;10.13;;;9.23;;
635;SDS011;302;50.206;8.196;2023-06-22T01:17:03;9.52;;;8.63;;
635;SDS011;302;50.206;8.196;2023-06-22T01:22:19;9.60;;;8.70;;
635;SDS011;302;50.206;8.196;2023-06-22T01:27:39;10.80;;;9.85;;
635;SDS011;302;50.206;8.196;2023-06-22T01:30:06;10.73;;;9.73;;
635;SDS011;302;50.206;8.196;2023-06-22T01:32:33;10.18;;;9.18;;
635;SDS011;302;50.206;8.196;2023-06-22T01:34:59;9.75;;;8.95;;
635;SDS011;302;50.206;8.196;2023-06-22T01:37:25;10.75;;;9.75;;
635;SDS011;302;50.206;8.196;2023-06-22T01:39:51;10.43;;;9.43;;
635;SDS011;302;50.206;8.196;2023-06-22T01:42:16;10.63;;;9.57;;
635;SDS011;302;50.206;8.196;2023-06-22T01:44:41;11.00;;;10.10;;
635;SDS011;302;50.206;8.196;2023-06-22T01:47:07;11.07;;;10.07;;
635;SDS011;302;50.206;8.196;2023-06-22T01:49:32;10.73;;;9.77;;
635;SDS011;302;50.206;8.196;2023-06-22T01:51:57;10.03;;;9.23;;
635;SDS011;302;50.206;8.196;2023-06-22T01:54:23;10.50;;;9.50;;
635;SDS011;302;50.206;8.196;2023-06-22T01:56:48;10.13;;;9.33;;
635;SDS011;302;50.206;8.196;2023-06-22T01:59:32;9.77;;;8.93;;
635;SDS011;302;50.206;8.196;2023-06-22T02:02:01;10.48;;;9.57;;
635;SDS011;302;50.206;8.196;2023-06-22T02:04:27;11.80;;;10.60;;
635;SDS011;302;50.206;8.196;2023-06-22T02:06:55;11.25;;;10.15;;
635;SDS011;302;50.206;8.196;2023-06-22T02:09:21;11.35;;;10.45;;
635;SDS011;302;50.206;8.196;2023-06-22T02:11:48;11.05;;;10.07;;
635;SDS011;302;50.206;8.196;2023-06-22T02:14:16;11.65;;;10.65;;
635;SDS011;302;50.206;8.196;2023-06-22T02:16:41;11.80;;;10.70;;
635;SDS011;302;50.206;8.196;2023-06-22T02:19:07;11.00;;;10.10;;
635;SDS011;302;50.206;8.196;2023-06-22T02:21:33;11.65;;;10.65;;
635;SDS011;302;50.206;8.196;2023-06-22T02:23:58;10.43;;;9.33;;
635;SDS011;302;50.206;8.196;2023-06-22T02:26:23;11.53;;;10.53;;
635;SDS011;302;50.206;8.196;2023-06-22T02:28:49;10.77;;;9.88;;
635;SDS011;302;50.206;8.196;2023-06-22T02:31:15;12.07;;;10.97;;
635;SDS011;302;50.206;8.196;2023-06-22T02:33:41;11.27;;;10.35;;
635;SDS011;302;50.206;8.196;2023-06-22T02:36:06;11.93;;;10.90;;
635;SDS011;302;50.206;8.196;2023-06-22T02:38:34;12.15;;;11.15;;
635;SDS011;302;50.206;8.196;2023-06-22T02:40:59;11.53;;;10.53;;
635;SDS011;302;50.206;8.196;2023-06-22T02:43:24;11.03;;;10.20;;
635;SDS011;302;50.206;8.196;2023-06-22T02:45:50;11.47;;;10.57;;
635;SDS011;302;50.206;8.196;2023-06-22T02:48:15;11.30;;;10.20;;
635;SDS011;302;50.206;8.196;2023-06-22T02:50:40;13.52;;;12.35;;
635;SDS011;302;50.206;8.196;2023-06-22T02:53:05;12.23;;;11.13;;
635;SDS011;302;50.206;8.196;2023-06-22T02:55:30;11.98;;;10.95;;
635;SDS011;302;50.206;8.196;2023-06-22T02:57:56;12.30;;;11.20;;
635;SDS011;302;50.206;8.196;2023-06-22T03:00:22;13.13;;;11.93;;
635;SDS011;302;50.206;8.196;2023-06-22T03:02:47;12.70;;;11.70;;
635;SDS011;302;50.206;8.196;2023-06-22T03:05:13;11.60;;;10.70;;
635;SDS011;302;50.206;8.196;2023-06-22T03:07:41;12.10;;;11.00;;
635;SDS011;302;50.206;8.196;2023-06-22T03:10:08;12.95;;;11.95;;
635;SDS011;302;50.206;8.196;2023-06-22T03:12:34;12.10;;;11.10;;
635;SDS011;302;50.206;8.196;2023-06-22T03:14:59;12.50;;;11.48;;
635;SDS011;302;50.206;8.196;2023-06-22T03:17:24;12.20;;;11.10;;
635;SDS011;302;50.206;8.196;2023-06-22T03:19:49;13.23;;;12.10;;
635;SDS011;302;50.206;8.196;2023-06-22T03:22:14;13.00;;;11.90;;
635;SDS011;302;50.206;8.196;2023-06-22T03:24:40;13.60;;;12.40;;
635;SDS011;302;50.206;8.196;2023-06-22T03:27:05;13.73;;;12.57;;
635;SDS011;302;50.206;8.196;2023-06-22T03:29:30;13.20;;;12.10;;
635;SDS011;302;50.206;8.196;2023-06-22T03:31:56;13.80;;;12.60;;
635;SDS011;302;50.206;8.196;2023-06-22T03:34:21;15.15;;;13.75;;
635;SDS011;302;50.206;8.196;2023-06-22T03:36:46;14.37;;;13.17;;
635;SDS011;302;50.206;8.196;2023-06-22T03:39:11;13.30;;;12.20;;
635;SDS011;302;50.206;8.196;2023-06-22T03:41:36;13.17;;;12.10;;
635;SDS011;302;50.206;8.196;2023-06-22T03:44:02;13.17;;;12.00;;
635;SDS011;302;50.206;8.196;2023-06-22T03:46:27;12.00;;;11.00;;
635;SDS011;302;50.206;8.196;2023-06-22T03:48:52;13.00;;;11.80;;
635;SDS011;302;50.206;8.196;2023-06-22T03:51:18;12.30;;;11.32;;
635;SDS011;302;50.206;8.196;2023-06-22T03:53:43;11.50;;;10.50;;
635;SDS011;302;50.206;8.196;2023-06-22T03:56:08;12.87;;;11.77;;
635;SDS011;302;50.206;8.196;2023-06-22T03:58:33;13.17;;;11.97;;
635;SDS011;302;50.206;8.196;2023-06-22T04:01:00;12.40;;;11.30;;
635;SDS011;302;50.206;8.196;2023-06-22T04:03:25;13.93;;;12.73;;
635;SDS011;302;50.206;8.196;2023-06-22T04:05:50;13.97;;;12.87;;
635;SDS011;302;50.206;8.196;2023-06-22T04:08:15;14.83;;;13.53;;
635;SDS011;302;50.206;8.196;2023-06-22T04:10:41;14.40;;;13.20;;
635;SDS011;302;50.206;8.196;2023-06-22T04:13:06;14.50;;;13.30;;
635;SDS011;302;50.206;8.196;2023-06-22T04:15:31;15.07;;;13.77;;
635;SDS011;302;50.206;8.196;2023-06-22T04:17:56;14.20;;;13.00;;
635;SDS011;302;50.206;8.196;2023-06-22T04:20:22;13.07;;;12.03;;
635;SDS011;302;50.206;8.196;2023-06-22T04:22:47;14.47;;;13.13;;
635;SDS011;302;50.206;8.196;2023-06-22T04:25:12;13.97;;;12.77;;
635;SDS011;302;50.206;8.196;2023-06-22T04:27:37;13.80;;;12.70;;
635;SDS011;302;50.206;8.196;2023-06-22T04:30:05;14.18;;;12.98;;
635;SDS011;302;50.206;8.196;2023-06-22T04:32:31;12.80;;;11.70;;
635;SDS011;302;50.206;8.196;2023-06-22T04:34:57;12.43;;;11.43;;
635;SDS011;302;50.206;8.196;2023-06-22T04:37:22;13.43;;;12.20;;
635;SDS011;302;50.206;8.196;2023-06-22T04:39:48;12.93;;;11.88;;
635;SDS011;302;50.206;8.196;2023-06-22T04:42:13;13.10;;;12.00;;
635;SDS011;302;50.206;8.196;2023-06-22T04:44:39;14.50;;;13.20;;
635;SDS011;302;50.206;8.196;2023-06-22T04:47:04;14.93;;;13.63;;
635;SDS011;302;50.206;8.196;2023-06-22T04:49:33;14.65;;;13.18;;
635;SDS011;302;50.206;8.196;2023-06-22T04:52:00;13.73;;;12.52;;
635;SDS011;302;50.206;8.196;2023-06-22T04:54:25;14.70;;;13.40;;
635;SDS011;302;50.206;8.196;2023-06-22T04:56:51;14.43;;;13.23;;
635;SDS011;302;50.206;8.196;2023-06-22T04:59:21;13.52;;;12.23;;
635;SDS011;302;50.206;8.196;2023-06-22T05:01:46;14.30;;;13.00;;
635;SDS011;302;50.206;8.196;2023-06-22T05:04:12;13.27;;;11.98;;
635;SDS011;302;50.206;8.196;2023-06-22T05:06:37;14.20;;;13.00;;
635;SDS011;302;50.206;8.196;2023-06-22T05:09:02;14.27;;;13.07;;
635;SDS011;302;50.206;8.196;2023-06-22T05:11:28;15.43;;;14.07;;
635;SDS011;302;50.206;8.196;2023-06-22T05:13:53;15.10;;;13.80;;
635;SDS011;302;50.206;8.196;2023-06-22T05:16:19;15.70;;;14.30;;
635;SDS011;302;50.206;8.196;2023-06-22T05:18:49;15.10;;;13.80;;
635;SDS011;302;50.206;8.196;2023-06-22T05:21:14;15.17;;;13.87;;
635;SDS011;302;50.206;8.196;2023-06-22T05:23:39;15.00;;;13.80;;
635;SDS011;302;50.206;8.196;2023-06-22T05:26:04;15.10;;;13.80;;
635;SDS011;302;50.206;8.196;2023-06-22T05:28:29;14.23;;;13.07;;
635;SDS011;302;50.206;8.196;2023-06-22T05:30:54;15.40;;;14.10;;
635;SDS011;302;50.206;8.196;2023-06-22T05:33:20;15.83;;;14.53;;
635;SDS011;302;50.206;8.196;2023-06-22T05:35:45;15.38;;;14.02;;
635;SDS011;302;50.206;8.196;2023-06-22T05:38:10;14.40;;;13.20;;
635;SDS011;302;50.206;8.196;2023-06-22T05:40:35;14.48;;;13.23;;
635;SDS011;302;50.206;8.196;2023-06-22T05:43:00;14.37;;;13.17;;
635;SDS011;302;50.206;8.196;2023-06-22T05:45:26;16.08;;;14.68;;
635;SDS011;302;50.206;8.196;2023-06-22T05:47:51;14.97;;;13.70;;
635;SDS011;302;50.206;8.196;2023-06-22T05:50:17;15.53;;;14.13;;
635;SDS011;302;50.206;8.196;2023-06-22T05:52:42;16.67;;;15.20;;
635;SDS011;302;50.206;8.196;2023-06-22T05:55:07;15.20;;;13.80;;
635;SDS011;302;50.206;8.196;2023-06-22T05:57:32;14.87;;;13.67;;
635;SDS011;302;50.206;8.196;2023-06-22T05:59:58;15.47;;;14.17;;
635;SDS011;302;50.206;8.196;2023-06-22T06:02:23;16.85;;;15.35;;
635;SDS011;302;50.206;8.196;2023-06-22T06:04:48;14.85;;;13.65;;
635;SDS011;302;50.206;8.196;2023-06-22T06:07:16;16.20;;;14.80;;
635;SDS011;302;50.206;8.196;2023-06-22T06:09:41;14.90;;;13.60;;
635;SDS011;302;50.206;8.196;2023-06-22T06:12:06;14.70;;;13.43;;
635;SDS011;302;50.206;8.196;2023-06-22T06:14:31;14.27;;;12.97;;
635;SDS011;302;50.206;8.196;2023-06-22T06:16:56;15.70;;;14.23;;
635;SDS011;302;50.206;8.196;2023-06-22T06:19:22;15.52;;;14.13;;
635;SDS011;302;50.206;8.196;2023-06-22T06:21:47;15.43;;;14.10;;
635;SDS011;302;50.206;8.196;2023-06-22T06:24:12;14.80;;;13.50;;
635;SDS011;302;50.206;8.196;2023-06-22T06:26:37;15.20;;;13.90;;
635;SDS011;302;50.206;8.196;2023-06-22T06:29:02;13.95;;;12.68;;
635;SDS011;302;50.206;8.196;2023-06-22T06:31:28;13.83;;;12.73;;
635;SDS011;302;50.206;8.196;2023-06-22T06:33:54;14.40;;;13.20;;
635;SDS011;302;50.206;8.196;2023-06-22T06:36:19;14.97;;;13.50;;
635;SDS011;302;50.206;8.196;2023-06-22T06:38:44;15.10;;;13.90;;
635;SDS011;302;50.206;8.196;2023-06-22T06:41:11;14.05;;;12.95;;
635;SDS011;302;50.206;8.196;2023-06-22T06:43:37;16.00;;;14.60;;
635;SDS011;302;50.206;8.196;2023-06-22T06:46:02;16.70;;;15.20;;
635;SDS011;302;50.206;8.196;2023-06-22T06:48:28;14.03;;;12.83;;
635;SDS011;302;50.206;8.196;2023-06-22T06:50:53;14.73;;;13.43;;
635;SDS011;302;50.206;8.196;2023-06-22T06:53:18;13.45;;;12.35;;
635;SDS011;302;50.206;8.196;2023-06-22T06:55:43;14.52;;;13.32;;
635;SDS011;302;50.206;8.196;2023-06-22T06:58:10;14.30;;;12.65;;
635;SDS011;302;50.206;8.196;2023-06-22T07:00:38;14.55;;;13.35;;
635;SDS011;302;50.206;8.196;2023-06-22T07:03:03;13.93;;;12.73;;
635;SDS011;302;50.206;8.196;2023-06-22T07:05:28;13.93;;;12.67;;
635;SDS011;302;50.206;8.196;2023-06-22T07:07:53;13.60;;;12.40;;
635;SDS011;302;50.206;8.196;2023-06-22T07:10:18;14.57;;;13.40;;
635;SDS011;302;50.206;8.196;2023-06-22T07:12:43;14.20;;;13.00;;
635;SDS011;302;50.206;8.196;2023-06-22T07:15:09;14.07;;;12.73;;
635;SDS011;302;50.206;8.196;2023-06-22T07:17:35;13.20;;;12.20;;
635;SDS011;302;50.206;8.196;2023-06-22T07:20:01;13.40;;;12.40;;
635;SDS011;302;50.206;8.196;2023-06-22T07:22:26;13.70;;;12.60;;
635;SDS011;302;50.206;8.196;2023-06-22T07:24:51;14.23;;;13.03;;
635;SDS011;302;50.206;8.196;2023-06-22T07:27:16;13.00;;;12.00;;
635;SDS011;302;50.206;8.196;2023-06-22T07:29:44;13.70;;;12.50;;
635;SDS011;302;50.206;8.196;2023-06-22T07:32:09;13.00;;;12.00;;
635;SDS011;302;50.206;8.196;2023-06-22T07:34:34;13.63;;;12.43;;
635;SDS011;302;50.206;8.196;2023-06-22T07:36:59;13.30;;;12.13;;
635;SDS011;302;50.206;8.196;2023-06-22T07:39:24;13.63;;;12.43;;
635;SDS011;302;50.206;8.196;2023-06-22T07:41:51;13.73;;;12.43;;
635;SDS011;302;50.206;8.196;2023-06-22T07:44:16;12.67;;;11.63;;
635;SDS011;302;50.206;8.196;2023-06-22T07:46:41;13.80;;;12.70;;
635;SDS011;302;50.206;8.196;2023-06-22T07:49:06;13.52;;;12.27;;
635;SDS011;302;50.206;8.196;2023-06-22T07:51:33;12.93;;;11.87;;
635;SDS011;302;50.206;8.196;2023-06-22T07:53:58;13.70;;;12.60;;
635;SDS011;302;50.206;8.196;2023-06-22T07:56:23;12.30;;;11.10;;
635;SDS011;302;50.206;8.196;2023-06-22T07:58:48;12.60;;;11.50;;
635;SDS011;302;50.206;8.196;2023-06-22T08:01:14;13.60;;;12.50;;
635;SDS011;302;50.206;8.196;2023-06-22T08:03:39;12.50;;;11.60;;
635;SDS011;302;50.206;8.196;2023-06-22T08:06:04;12.43;;;11.40;;
635;SDS011;302;50.206;8.196;2023-06-22T08:08:30;13.17;;;12.03;;
635;SDS011;302;50.206;8.196;2023-06-22T08:10:55;12.27;;;11.27;;
635;SDS011;302;50.206;8.196;2023-06-22T08:13:21;12.73;;;11.73;;
635;SDS011;302;50.206;8.196;2023-06-22T08:15:46;13.00;;;11.90;;
635;SDS011;302;50.206;8.196;2023-06-22T08:18:11;12.87;;;11.70;;
635;SDS011;302;50.206;8.196;2023-06-22T08:20:36;11.40;;;10.50;;
635;SDS011;302;50.206;8.196;2023-06-22T08:23:01;13.60;;;12.40;;
635;SDS011;302;50.206;8.196;2023-06-22T08:25:31;13.43;;;12.40;;
635;SDS011;302;50.206;8.196;2023-06-22T08:27:56;12.17;;;11.17;;
635;SDS011;302;50.206;8.196;2023-06-22T08:30:21;12.60;;;11.50;;
635;SDS011;302;50.206;8.196;2023-06-22T08:32:46;12.10;;;11.07;;
635;SDS011;302;50.206;8.196;2023-06-22T08:35:11;13.40;;;12.30;;
635;SDS011;302;50.206;8.196;2023-06-22T08:37:37;12.13;;;11.23;;
635;SDS011;302;50.206;8.196;2023-06-22T08:40:04;12.50;;;11.50;;
635;SDS011;302;50.206;8.196;2023-06-22T08:42:34;12.90;;;11.60;;
635;SDS011;302;50.206;8.196;2023-06-22T08:44:59;11.63;;;10.73;;
635;SDS011;302;50.206;8.196;2023-06-22T08:47:24;12.00;;;11.10;;
635;SDS011;302;50.206;8.196;2023-06-22T08:49:50;12.53;;;11.43;;
635;SDS011;302;50.206;8.196;2023-06-22T08:52:15;10.70;;;9.80;;
635;SDS011;302;50.206;8.196;2023-06-22T08:54:40;10.93;;;10.13;;
635;SDS011;302;50.206;8.196;2023-06-22T08:57:05;10.77;;;9.97;;
635;SDS011;302;50.206;8.196;2023-06-22T08:59:31;10.93;;;10.13;;
635;SDS011;302;50.206;8.196;2023-06-22T09:01:56;10.77;;;9.87;;
635;SDS011;302;50.206;8.196;2023-06-22T09:04:21;10.07;;;9.27;;
635;SDS011;302;50.206;8.196;2023-06-22T09:06:49;11.67;;;10.67;;
635;SDS011;302;50.206;8.196;2023-06-22T09:09:17;11.23;;;10.43;;
635;SDS011;302;50.206;8.196;2023-06-22T09:11:42;11.23;;;10.27;;
635;SDS011;302;50.206;8.196;2023-06-22T09:14:08;9.77;;;9.07;;
635;SDS011;302;50.206;8.196;2023-06-22T09:16:33;10.97;;;9.87;;
635;SDS011;302;50.206;8.196;2023-06-22T09:18:58;10.50;;;9.70;;
635;SDS011;302;50.206;8.196;2023-06-22T09:21:24;10.37;;;9.57;;
635;SDS011;302;50.206;8.196;2023-06-22T09:23:49;10.00;;;9.20;;
635;SDS011;302;50.206;8.196;2023-06-22T09:26:16;10.60;;;9.80;;
635;SDS011;302;50.206;8.196;2023-06-22T09:28:41;8.87;;;8.17;;
635;SDS011;302;50.206;8.196;2023-06-22T09:31:07;9.70;;;8.90;;
635;SDS011;302;50.206;8.196;2023-06-22T09:33:32;10.15;;;9.35;;
635;SDS011;302;50.206;8.196;2023-06-22T09:35:57;11.07;;;10.17;;
635;SDS011;302;50.206;8.196;2023-06-22T09:38:22;11.07;;;10.18;;
635;SDS011;302;50.206;8.196;2023-06-22T09:40:47;10.67;;;9.67;;
635;SDS011;302;50.206;8.196;2023-06-22T09:43:12;11.37;;;10.37;;
635;SDS011;302;50.206;8.196;2023-06-22T09:45:38;10.63;;;9.70;;
635;SDS011;302;50.206;8.196;2023-06-22T09:48:03;10.43;;;9.63;;
635;SDS011;302;50.206;8.196;2023-06-22T09:50:28;10.10;;;9.30;;
635;SDS011;302;50.206;8.196;2023-06-22T09:52:53;9.38;;;8.68;;
635;SDS011;302;50.206;8.196;2023-06-22T09:55:22;11.00;;;10.20;;
635;SDS011;302;50.206;8.196;2023-06-22T09:57:47;10.03;;;9.23;;
635;SDS011;302;50.206;8.196;2023-06-22T10:00:13;10.57;;;9.57;;
635;SDS011;302;50.206;8.196;2023-06-22T10:02:39;10.53;;;9.73;;
635;SDS011;302;50.206;8.196;2023-06-22T10:05:04;10.63;;;9.83;;
635;SDS011;302;50.206;8.196;2023-06-22T10:07:29;10.37;;;9.47;;
635;SDS011;302;50.206;8.196;2023-06-22T10:09:54;10.30;;;9.50;;
635;SDS011;302;50.206;8.196;2023-06-22T10:12:20;10.15;;;9.35;;
635;SDS011;302;50.206;8.196;2023-06-22T10:14:45;9.88;;;9.07;;
635;SDS011;302;50.206;8.196;2023-06-22T10:17:10;10.75;;;9.90;;
635;SDS011;302;50.206;8.196;2023-06-22T10:19:35;10.87;;;9.87;;
635;SDS011;302;50.206;8.196;2023-06-22T10:22:02;10.90;;;10.10;;
635;SDS011;302;50.206;8.196;2023-06-22T10:24:27;10.00;;;9.20;;
635;SDS011;302;50.206;8.196;2023-06-22T10:26:53;10.37;;;9.57;;
635;SDS011;302;50.206;8.196;2023-06-22T10:29:18;9.40;;;8.70;;
635;SDS011;302;50.206;8.196;2023-06-22T10:31:43;9.97;;;9.27;;
635;SDS011;302;50.206;8.196;2023-06-22T10:34:11;9.60;;;8.87;;
635;SDS011;302;50.206;8.196;2023-06-22T10:36:36;10.43;;;9.63;;
635;SDS011;302;50.206;8.196;2023-06-22T10:39:01;10.57;;;9.77;;
635;SDS011;302;50.206;8.196;2023-06-22T10:41:27;10.83;;;9.93;;
635;SDS011;302;50.206;8.196;2023-06-22T10:43:55;11.13;;;9.50;;
635;SDS011;302;50.206;8.196;2023-06-22T10:46:20;11.87;;;10.67;;
635;SDS011;302;50.206;8.196;2023-06-22T10:48:45;11.27;;;10.27;;
635;SDS011;302;50.206;8.196;2023-06-22T10:51:10;10.10;;;9.30;;
635;SDS011;302;50.206;8.196;2023-06-22T10:53:35;10.10;;;9.40;;
635;SDS011;302;50.206;8.196;2023-06-22T10:56:00;10.60;;;9.70;;
635;SDS011;302;50.206;8.196;2023-06-22T10:58:26;11.33;;;10.37;;
635;SDS011;302;50.206;8.196;2023-06-22T11:00:51;10.47;;;9.57;;
635;SDS011;302;50.206;8.196;2023-06-22T11:03:16;10.20;;;9.30;;
635;SDS011;302;50.206;8.196;2023-06-22T11:05:41;11.55;;;10.50;;
635;SDS011;302;50.206;8.196;2023-06-22T11:08:07;9.70;;;8.97;;
635;SDS011;302;50.206;8.196;2023-06-22T11:10:32;9.75;;;9.05;;
635;SDS011;302;50.206;8.196;2023-06-22T11:12:57;9.98;;;9.27;;
635;SDS011;302;50.206;8.196;2023-06-22T11:15:22;10.17;;;9.30;;
635;SDS011;302;50.206;8.196;2023-06-22T11:17:48;10.37;;;9.57;;
635;SDS011;302;50.206;8.196;2023-06-22T11:20:13;10.23;;;9.30;;
635;SDS011;302;50.206;8.196;2023-06-22T11:22:38;9.70;;;9.00;;
635;SDS011;302;50.206;8.196;2023-06-22T11:25:04;11.10;;;10.17;;
635;SDS011;302;50.206;8.196;2023-06-22T11:27:29;10.37;;;9.47;;
635;SDS011;302;50.206;8.196;2023-06-22T11:29:55;9.10;;;8.30;;
635;SDS011;302;50.206;8.196;2023-06-22T11:32:20;9.57;;;8.77;;
635;SDS011;302;50.206;8.196;2023-06-22T11:34:45;9.83;;;9.03;;
635;SDS011;302;50.206;8.196;2023-06-22T11:37:11;10.77;;;9.60;;
635;SDS011;302;50.206;8.196;2023-06-22T11:39:36;10.90;;;9.93;;
635;SDS011;302;50.206;8.196;2023-06-22T11:42:01;9.48;;;8.68;;
635;SDS011;302;50.206;8.196;2023-06-22T11:44:26;10.80;;;9.63;;
635;SDS011;302;50.206;8.196;2023-06-22T11:46:51;9.07;;;8.32;;
635;SDS011;302;50.206;8.196;2023-06-22T11:49:17;9.70;;;8.90;;
635;SDS011;302;50.206;8.196;2023-06-22T11:51:42;10.18;;;9.45;;
635;SDS011;302;50.206;8.196;2023-06-22T11:54:07;9.32;;;8.50;;
635;SDS011;302;50.206;8.196;2023-06-22T11:56:32;8.85;;;8.15;;
635;SDS011;302;50.206;8.196;2023-06-22T11:58:58;8.90;;;8.10;;
635;SDS011;302;50.206;8.196;2023-06-22T12:01:23;8.53;;;7.73;;
635;SDS011;302;50.206;8.196;2023-06-22T12:03:48;9.43;;;8.80;;
635;SDS011;302;50.206;8.196;2023-06-22T12:06:13;8.13;;;7.53;;
635;SDS011;302;50.206;8.196;2023-06-22T12:08:38;10.00;;;9.10;;
635;SDS011;302;50.206;8.196;2023-06-22T12:11:03;8.25;;;7.65;;
635;SDS011;302;50.206;8.196;2023-06-22T12:13:29;8.95;;;8.25;;
635;SDS011;302;50.206;8.196;2023-06-22T12:15:54;9.13;;;8.32;;
635;SDS011;302;50.206;8.196;2023-06-22T12:18:19;8.80;;;8.10;;
635;SDS011;302;50.206;8.196;2023-06-22T12:20:46;9.50;;;8.70;;
635;SDS011;302;50.206;8.196;2023-06-22T12:23:12;9.47;;;8.77;;
635;SDS011;302;50.206;8.196;2023-06-22T12:25:37;8.98;;;8.27;;
635;SDS011;302;50.206;8.196;2023-06-22T12:28:02;9.05;;;8.35;;
635;SDS011;302;50.206;8.196;2023-06-22T12:30:27;9.83;;;8.97;;
635;SDS011;302;50.206;8.196;2023-06-22T12:32:53;9.07;;;8.33;;
635;SDS011;302;50.206;8.196;2023-06-22T12:35:18;10.25;;;9.30;;
635;SDS011;302;50.206;8.196;2023-06-22T12:37:43;8.43;;;7.83;;
635;SDS011;302;50.206;8.196;2023-06-22T12:40:09;8.80;;;8.00;;
635;SDS011;302;50.206;8.196;2023-06-22T12:42:34;7.73;;;7.07;;
635;SDS011;302;50.206;8.196;2023-06-22T12:44:59;7.90;;;7.20;;
635;SDS011;302;50.206;8.196;2023-06-22T12:47:24;7.70;;;7.10;;
635;SDS011;302;50.206;8.196;2023-06-22T12:49:49;8.43;;;7.73;;
635;SDS011;302;50.206;8.196;2023-06-22T12:52:15;8.25;;;7.47;;
635;SDS011;302;50.206;8.196;2023-06-22T12:54:40;7.97;;;7.27;;
635;SDS011;302;50.206;8.196;2023-06-22T12:57:05;7.55;;;6.90;;
635;SDS011;302;50.206;8.196;2023-06-22T12:59:31;7.47;;;6.63;;
635;SDS011;302;50.206;8.196;2023-06-22T13:01:56;7.88;;;7.22;;
635;SDS011;302;50.206;8.196;2023-06-22T13:04:21;7.93;;;7.32;;
635;SDS011;302;50.206;8.196;2023-06-22T13:06:46;7.30;;;6.70;;
635;SDS011;302;50.206;8.196;2023-06-22T13:09:13;8.10;;;7.40;;
635;SDS011;302;50.206;8.196;2023-06-22T13:11:38;7.60;;;6.90;;
635;SDS011;302;50.206;8.196;2023-06-22T13:14:03;7.47;;;6.93;;
635;SDS011;302;50.206;8.196;2023-06-22T13:16:28;8.10;;;7.33;;
635;SDS011;302;50.206;8.196;2023-06-22T13:18:53;7.87;;;7.17;;
635;SDS011;302;50.206;8.196;2023-06-22T13:21:19;7.32;;;6.60;;
635;SDS011;302;50.206;8.196;2023-06-22T13:23:44;9.53;;;7.37;;
635;SDS011;302;50.206;8.196;2023-06-22T13:26:09;8.53;;;7.60;;
635;SDS011;302;50.206;8.196;2023-06-22T13:28:34;9.38;;;7.45;;
635;SDS011;302;50.206;8.196;2023-06-22T13:30:59;7.90;;;7.20;;
635;SDS011;302;50.206;8.196;2023-06-22T13:33:24;7.93;;;7.23;;
635;SDS011;302;50.206;8.196;2023-06-22T13:35:50;7.60;;;7.00;;
635;SDS011;302;50.206;8.196;2023-06-22T13:38:15;8.03;;;7.27;;
635;SDS011;302;50.206;8.196;2023-06-22T13:40:40;7.47;;;6.83;;
635;SDS011;302;50.206;8.196;2023-06-22T13:43:06;8.00;;;7.37;;
635;SDS011;302;50.206;8.196;2023-06-22T13:45:31;7.67;;;7.00;;
635;SDS011;302;50.206;8.196;2023-06-22T13:47:56;8.40;;;7.63;;
635;SDS011;302;50.206;8.196;2023-06-22T13:50:21;8.57;;;7.77;;
635;SDS011;302;50.206;8.196;2023-06-22T13:52:47;8.30;;;7.70;;
635;SDS011;302;50.206;8.196;2023-06-22T13:55:12;8.57;;;7.73;;
635;SDS011;302;50.206;8.196;2023-06-22T13:57:39;8.07;;;7.30;;
635;SDS011;302;50.206;8.196;2023-06-22T14:00:05;7.63;;;7.03;;
635;SDS011;302;50.206;8.196;2023-06-22T14:02:30;8.83;;;8.13;;
635;SDS011;302;50.206;8.196;2023-06-22T14:04:56;7.93;;;7.23;;
635;SDS011;302;50.206;8.196;2023-06-22T14:07:21;9.02;;;8.23;;
635;SDS011;302;50.206;8.196;2023-06-22T14:09:46;8.73;;;8.00;;
635;SDS011;302;50.206;8.196;2023-06-22T14:12:11;8.70;;;8.00;;
635;SDS011;302;50.206;8.196;2023-06-22T14:14:37;9.53;;;8.80;;
635;SDS011;302;50.206;8.196;2023-06-22T14:17:03;9.37;;;8.57;;
635;SDS011;302;50.206;8.196;2023-06-22T14:19:28;9.67;;;8.77;;
635;SDS011;302;50.206;8.196;2023-06-22T14:21:53;9.50;;;8.80;;
635;SDS011;302;50.206;8.196;2023-06-22T14:24:18;10.07;;;9.17;;
635;SDS011;302;50.206;8.196;2023-06-22T14:26:43;10.10;;;9.20;;
635;SDS011;302;50.206;8.196;2023-06-22T14:29:08;10.13;;;9.32;;
635;SDS011;302;50.206;8.196;2023-06-22T14:31:34;9.10;;;8.33;;
635;SDS011;302;50.206;8.196;2023-06-22T14:33:59;10.57;;;9.67;;
635;SDS011;302;50.206;8.196;2023-06-22T14:36:25;10.37;;;9.47;;
635;SDS011;302;50.206;8.196;2023-06-22T14:38:50;10.05;;;9.25;;
635;SDS011;302;50.206;8.196;2023-06-22T14:41:15;10.13;;;9.13;;
635;SDS011;302;50.206;8.196;2023-06-22T14:43:45;9.83;;;9.00;;
635;SDS011;302;50.206;8.196;2023-06-22T14:46:11;10.30;;;9.50;;
635;SDS011;302;50.206;8.196;2023-06-22T14:48:37;9.97;;;9.17;;
635;SDS011;302;50.206;8.196;2023-06-22T14:51:02;8.10;;;7.40;;
635;SDS011;302;50.206;8.196;2023-06-22T14:53:27;8.00;;;7.30;;
635;SDS011;302;50.206;8.196;2023-06-22T14:55:52;7.90;;;7.28;;
635;SDS011;302;50.206;8.196;2023-06-22T14:58:19;7.63;;;6.93;;
635;SDS011;302;50.206;8.196;2023-06-22T15:00:44;7.72;;;7.03;;
635;SDS011;302;50.206;8.196;2023-06-22T15:03:09;7.07;;;6.40;;
635;SDS011;302;50.206;8.196;2023-06-22T15:05:41;7.70;;;6.87;;
635;SDS011;302;50.206;8.196;2023-06-22T15:08:06;7.40;;;6.70;;
635;SDS011;302;50.206;8.196;2023-06-22T15:10:32;7.10;;;6.40;;
635;SDS011;302;50.206;8.196;2023-06-22T15:12:57;6.28;;;5.82;;
635;SDS011;302;50.206;8.196;2023-06-22T15:15:22;7.20;;;5.97;;
635;SDS011;302;50.206;8.196;2023-06-22T15:17:47;7.07;;;6.22;;
635;SDS011;302;50.206;8.196;2023-06-22T15:20:12;7.10;;;5.83;;
635;SDS011;302;50.206;8.196;2023-06-22T15:22:37;9.30;;;7.73;;